createdAt,value
2016-08-17T00:00:59.685Z,0
2016-08-17T00:01:59.447Z,0
2016-08-17T00:02:59.462Z,0
2016-08-17T00:03:59.584Z,0
2016-08-17T00:04:59.538Z,0
2016-08-17T00:05:59.775Z,0
2016-08-17T00:06:59.569Z,0
2016-08-17T00:07:59.604Z,0
2016-08-17T00:08:59.575Z,0
2016-08-17T00:09:59.470Z,0
2016-08-17T00:10:59.732Z,0
2016-08-17T00:11:59.677Z,0
2016-08-17T00:12:59.526Z,0
2016-08-17T00:13:59.506Z,0
2016-08-17T00:14:59.509Z,0
2016-08-17T00:15:59.626Z,0
2016-08-17T00:16:59.523Z,0
2016-08-17T00:18:00.307Z,0
2016-08-17T00:19:00.021Z,0
2016-08-17T00:19:59.501Z,0
2016-08-17T00:20:59.715Z,0
2016-08-17T00:21:59.529Z,0
2016-08-17T00:22:59.596Z,0
2016-08-17T00:23:59.498Z,0
2016-08-17T00:24:59.463Z,0
2016-08-17T00:25:59.554Z,0
2016-08-17T00:26:59.525Z,0
2016-08-17T00:27:59.525Z,0
2016-08-17T00:28:59.519Z,0
2016-08-17T00:29:59.521Z,0
2016-08-17T00:30:59.525Z,0
2016-08-17T00:31:59.596Z,0
2016-08-17T00:33:00.509Z,0
2016-08-17T00:33:59.492Z,0
2016-08-17T00:34:59.525Z,0
2016-08-17T00:35:59.558Z,0
2016-08-17T00:36:59.556Z,0
2016-08-17T00:37:59.493Z,0
2016-08-17T00:38:59.788Z,0
2016-08-17T00:39:59.529Z,0
2016-08-17T00:40:59.512Z,0
2016-08-17T00:41:59.526Z,0
2016-08-17T00:42:59.543Z,0
2016-08-17T00:43:59.534Z,0
2016-08-17T00:44:59.523Z,0
2016-08-17T00:45:59.527Z,0
2016-08-17T00:46:59.549Z,0
2016-08-17T00:47:59.576Z,0
2016-08-17T00:48:59.545Z,0
2016-08-17T00:49:59.538Z,0
2016-08-17T00:50:59.570Z,0
2016-08-17T00:51:59.532Z,0
2016-08-17T00:52:59.583Z,0
2016-08-17T00:53:59.943Z,0
2016-08-17T00:54:59.523Z,0
2016-08-17T00:55:59.507Z,0
2016-08-17T00:56:59.693Z,0
2016-08-17T00:57:59.494Z,0
2016-08-17T00:58:59.522Z,0
2016-08-17T00:59:59.555Z,0
2016-08-17T01:00:59.545Z,0
2016-08-17T01:01:59.567Z,0
2016-08-17T01:02:59.515Z,0
2016-08-17T01:03:59.512Z,0
2016-08-17T01:04:59.524Z,0
2016-08-17T01:05:59.753Z,0
2016-08-17T01:06:59.518Z,0
2016-08-17T01:07:59.539Z,0
2016-08-17T01:08:59.545Z,0
2016-08-17T01:09:59.523Z,0
2016-08-17T01:10:59.541Z,0
2016-08-17T01:11:59.870Z,0
2016-08-17T01:12:59.494Z,0
2016-08-17T01:13:59.564Z,0
2016-08-17T01:14:59.608Z,0
2016-08-17T01:15:59.500Z,0
2016-08-17T01:16:59.494Z,0
2016-08-17T01:17:59.750Z,0
2016-08-17T01:18:59.546Z,0
2016-08-17T01:19:59.576Z,0
2016-08-17T01:20:59.931Z,0
2016-08-17T01:21:59.505Z,0
2016-08-17T01:22:59.516Z,0
2016-08-17T01:23:59.556Z,0
2016-08-17T01:24:59.541Z,0
2016-08-17T01:25:59.531Z,0
2016-08-17T01:26:59.735Z,0
2016-08-17T01:27:59.511Z,0
2016-08-17T01:28:59.525Z,0
2016-08-17T01:29:59.535Z,0
2016-08-17T01:30:59.538Z,0
2016-08-17T01:31:59.518Z,0
2016-08-17T01:32:59.571Z,0
2016-08-17T01:33:59.541Z,0
2016-08-17T01:34:59.519Z,0
2016-08-17T01:35:59.527Z,0
2016-08-17T01:36:59.532Z,0
2016-08-17T01:37:59.526Z,0
2016-08-17T01:38:59.544Z,0
2016-08-17T01:39:59.542Z,0
2016-08-17T01:40:59.543Z,0
2016-08-17T01:41:59.532Z,0
2016-08-17T01:42:59.558Z,0
2016-08-17T01:43:59.546Z,0
2016-08-17T01:44:59.567Z,0
2016-08-17T01:45:59.560Z,0
2016-08-17T01:46:59.605Z,0
2016-08-17T01:47:59.547Z,0
2016-08-17T01:48:59.567Z,0
2016-08-17T01:49:59.542Z,0
2016-08-17T01:50:59.595Z,0
2016-08-17T01:51:59.556Z,0
2016-08-17T01:53:00.360Z,0
2016-08-17T01:53:59.619Z,0
2016-08-17T01:54:59.589Z,0
2016-08-17T01:55:59.603Z,0
2016-08-17T01:56:59.828Z,0
2016-08-17T01:57:59.550Z,0
2016-08-17T01:58:59.543Z,0
2016-08-17T01:59:59.543Z,0
2016-08-17T02:00:59.544Z,0
2016-08-17T02:01:59.575Z,0
2016-08-17T02:02:59.556Z,0
2016-08-17T02:03:59.574Z,0
2016-08-17T02:04:59.585Z,0
2016-08-17T02:05:59.545Z,0
2016-08-17T02:06:59.587Z,0
2016-08-17T02:07:59.588Z,0
2016-08-17T02:08:59.863Z,0
2016-08-17T02:09:59.575Z,0
2016-08-17T02:11:00.298Z,0
2016-08-17T02:11:59.558Z,0
2016-08-17T02:12:59.553Z,0
2016-08-17T02:13:59.603Z,0
2016-08-17T02:14:59.645Z,0
2016-08-17T02:15:59.574Z,0
2016-08-17T02:16:59.575Z,0
2016-08-17T02:17:59.558Z,0
2016-08-17T02:18:59.564Z,0
2016-08-17T02:19:59.567Z,0
2016-08-17T02:20:59.573Z,0
2016-08-17T02:21:59.553Z,0
2016-08-17T02:22:59.574Z,0
2016-08-17T02:23:59.634Z,0
2016-08-17T02:24:59.573Z,0
2016-08-17T02:25:59.565Z,0
2016-08-17T02:26:59.590Z,0
2016-08-17T02:27:59.607Z,0
2016-08-17T02:28:59.592Z,0
2016-08-17T02:29:59.593Z,0
2016-08-17T02:30:59.589Z,0
2016-08-17T02:31:59.592Z,0
2016-08-17T02:32:59.575Z,0
2016-08-17T02:33:59.576Z,0
2016-08-17T02:34:59.587Z,0
2016-08-17T02:35:59.564Z,0
2016-08-17T02:36:59.578Z,0
2016-08-17T02:37:59.582Z,0
2016-08-17T02:39:00.053Z,0
2016-08-17T02:39:59.561Z,0
2016-08-17T02:40:59.576Z,0
2016-08-17T02:41:59.577Z,0
2016-08-17T02:42:59.565Z,0
2016-08-17T02:43:59.578Z,0
2016-08-17T02:44:59.936Z,0
2016-08-17T02:45:59.618Z,0
2016-08-17T02:46:59.592Z,0
2016-08-17T02:47:59.607Z,0
2016-08-17T02:48:59.622Z,0
2016-08-17T02:49:59.622Z,0
2016-08-17T02:50:59.620Z,0
2016-08-17T02:51:59.619Z,0
2016-08-17T02:52:59.619Z,0
2016-08-17T02:53:59.645Z,0
2016-08-17T02:54:59.606Z,0
2016-08-17T02:55:59.610Z,0
2016-08-17T02:56:59.626Z,0
2016-08-17T02:57:59.623Z,0
2016-08-17T02:58:59.611Z,0
2016-08-17T02:59:59.845Z,0
2016-08-17T03:00:59.657Z,0
2016-08-17T03:01:59.611Z,0
2016-08-17T03:02:59.654Z,0
2016-08-17T03:03:59.636Z,0
2016-08-17T03:04:59.669Z,0
2016-08-17T03:06:00.102Z,0
2016-08-17T03:06:59.616Z,0
2016-08-17T03:07:59.653Z,0
2016-08-17T03:09:00.104Z,0
2016-08-17T03:09:59.647Z,0
2016-08-17T03:10:59.600Z,0
2016-08-17T03:11:59.712Z,0
2016-08-17T03:12:59.633Z,0
2016-08-17T03:13:59.623Z,0
2016-08-17T03:14:59.629Z,0
2016-08-17T03:15:59.609Z,0
2016-08-17T03:16:59.624Z,0
2016-08-17T03:17:59.635Z,0
2016-08-17T03:18:59.656Z,0
2016-08-17T03:19:59.609Z,0
2016-08-17T03:20:59.677Z,0
2016-08-17T03:21:59.606Z,0
2016-08-17T03:22:59.721Z,0
2016-08-17T03:23:59.856Z,0
2016-08-17T03:24:59.621Z,0
2016-08-17T03:25:59.616Z,0
2016-08-17T03:27:00.106Z,0
2016-08-17T03:27:59.639Z,0
2016-08-17T03:28:59.631Z,0
2016-08-17T03:30:00.163Z,0
2016-08-17T03:30:59.641Z,0
2016-08-17T03:31:59.608Z,0
2016-08-17T03:32:59.627Z,0
2016-08-17T03:33:59.636Z,0
2016-08-17T03:34:59.627Z,0
2016-08-17T03:35:59.647Z,0
2016-08-17T03:36:59.612Z,0
2016-08-17T03:37:59.654Z,0
2016-08-17T03:38:59.656Z,0
2016-08-17T03:39:59.690Z,0
2016-08-17T03:40:59.653Z,0
2016-08-17T03:41:59.706Z,0
2016-08-17T03:42:59.632Z,0
2016-08-17T03:43:59.657Z,0
2016-08-17T03:44:59.670Z,0
2016-08-17T03:45:59.655Z,0
2016-08-17T03:46:59.648Z,0
2016-08-17T03:47:59.638Z,0
2016-08-17T03:48:59.675Z,0
2016-08-17T03:49:59.674Z,0
2016-08-17T03:50:59.645Z,0
2016-08-17T03:51:59.740Z,0
2016-08-17T03:52:59.654Z,0
2016-08-17T03:53:59.684Z,0
2016-08-17T03:54:59.714Z,0
2016-08-17T03:55:59.683Z,0
2016-08-17T03:56:59.638Z,0
2016-08-17T03:57:59.616Z,0
2016-08-17T03:58:59.637Z,0
2016-08-17T03:59:59.628Z,0
2016-08-17T04:00:59.653Z,0
2016-08-17T04:01:59.646Z,0
2016-08-17T04:03:00.299Z,0
2016-08-17T04:03:59.655Z,0
2016-08-17T04:04:59.688Z,0
2016-08-17T04:05:59.702Z,0
2016-08-17T04:06:59.674Z,0
2016-08-17T04:07:59.718Z,0
2016-08-17T04:09:00.015Z,0
2016-08-17T04:09:59.665Z,5
2016-08-17T04:10:59.641Z,5
2016-08-17T04:11:59.691Z,5
2016-08-17T04:12:59.671Z,5
2016-08-17T04:13:59.661Z,5
2016-08-17T04:14:59.672Z,5
2016-08-17T04:15:59.687Z,5
2016-08-17T04:16:59.688Z,5
2016-08-17T04:17:59.670Z,5
2016-08-17T04:18:59.648Z,10
2016-08-17T04:19:59.668Z,10
2016-08-17T04:20:59.735Z,10
2016-08-17T04:21:59.684Z,10
2016-08-17T04:22:59.692Z,10
2016-08-17T04:23:59.657Z,10
2016-08-17T04:25:00.558Z,15
2016-08-17T04:25:59.926Z,15
2016-08-17T04:27:00.242Z,15
2016-08-17T04:28:01.160Z,15
2016-08-17T04:29:00.608Z,15
2016-08-17T04:30:00.266Z,20
2016-08-17T04:30:59.807Z,20
2016-08-17T04:31:59.792Z,20
2016-08-17T04:32:59.776Z,20
2016-08-17T04:33:59.823Z,25
2016-08-17T04:35:00.033Z,25
2016-08-17T04:35:59.968Z,25
2016-08-17T04:36:59.785Z,25
2016-08-17T04:38:00.153Z,25
2016-08-17T04:38:59.673Z,30
2016-08-17T04:39:59.635Z,30
2016-08-17T04:40:59.716Z,30
2016-08-17T04:42:02.028Z,30
2016-08-17T04:43:01.565Z,35
2016-08-17T04:44:00.362Z,35
2016-08-17T04:44:59.729Z,35
2016-08-17T04:46:00.503Z,35
2016-08-17T04:47:00.989Z,35
2016-08-17T04:48:00.870Z,40
2016-08-17T04:48:59.734Z,40
2016-08-17T04:50:01.007Z,40
2016-08-17T04:51:00.843Z,40
2016-08-17T04:51:59.724Z,45
2016-08-17T04:53:00.828Z,45
2016-08-17T04:54:00.907Z,45
2016-08-17T04:55:00.671Z,45
2016-08-17T04:56:00.215Z,45
2016-08-17T04:57:00.577Z,50
2016-08-17T04:57:59.701Z,50
2016-08-17T04:58:59.717Z,50
2016-08-17T04:59:59.737Z,50
2016-08-17T05:00:59.688Z,55
2016-08-17T05:01:59.709Z,55
2016-08-17T05:03:00.900Z,55
2016-08-17T05:03:59.725Z,55
2016-08-17T05:05:00.317Z,55
2016-08-17T05:05:59.692Z,60
2016-08-17T05:07:00.695Z,60
2016-08-17T05:08:00.527Z,60
2016-08-17T05:09:00.585Z,60
2016-08-17T05:09:59.717Z,60
2016-08-17T05:10:59.690Z,65
2016-08-17T05:11:59.697Z,65
2016-08-17T05:12:59.710Z,65
2016-08-17T05:13:59.731Z,65
2016-08-17T05:14:59.727Z,65
2016-08-17T05:15:59.788Z,70
2016-08-17T05:16:59.722Z,70
2016-08-17T05:17:59.780Z,70
2016-08-17T05:18:59.736Z,70
2016-08-17T05:19:59.720Z,70
2016-08-17T05:20:59.749Z,70
2016-08-17T05:22:00.095Z,75
2016-08-17T05:23:00.380Z,75
2016-08-17T05:23:59.764Z,75
2016-08-17T05:25:00.232Z,75
2016-08-17T05:26:00.634Z,75
2016-08-17T05:26:59.842Z,80
2016-08-17T05:28:00.589Z,80
2016-08-17T05:28:59.701Z,80
2016-08-17T05:30:00.493Z,80
2016-08-17T05:31:00.397Z,80
2016-08-17T05:31:59.801Z,85
2016-08-17T05:33:00.920Z,85
2016-08-17T05:34:00.648Z,85
2016-08-17T05:35:00.017Z,85
2016-08-17T05:36:00.971Z,85
2016-08-17T05:37:01.211Z,85
2016-08-17T05:38:00.400Z,85
2016-08-17T05:39:00.594Z,90
2016-08-17T05:39:59.741Z,90
2016-08-17T05:41:00.407Z,90
2016-08-17T05:42:00.787Z,90
2016-08-17T05:42:59.766Z,90
2016-08-17T05:43:59.990Z,90
2016-08-17T05:45:00.355Z,90
2016-08-17T05:45:59.726Z,95
2016-08-17T05:46:59.812Z,95
2016-08-17T05:48:01.041Z,95
2016-08-17T05:48:59.750Z,95
2016-08-17T05:49:59.750Z,95
2016-08-17T05:51:00.729Z,95
2016-08-17T05:51:59.776Z,95
2016-08-17T05:52:59.719Z,100
2016-08-17T05:54:06.445Z,100
2016-08-17T05:54:59.751Z,100
2016-08-17T05:55:59.740Z,100
2016-08-17T05:56:59.860Z,100
2016-08-17T05:57:59.717Z,100
2016-08-17T05:58:59.756Z,100
2016-08-17T05:59:59.753Z,100
2016-08-17T06:00:59.726Z,100
2016-08-17T06:01:59.740Z,105
2016-08-17T06:02:59.880Z,105
2016-08-17T06:03:59.871Z,105
2016-08-17T06:04:59.798Z,105
2016-08-17T06:06:00.244Z,105
2016-08-17T06:07:00.398Z,105
2016-08-17T06:07:59.779Z,105
2016-08-17T06:08:59.782Z,105
2016-08-17T06:09:59.752Z,110
2016-08-17T06:11:00.316Z,110
2016-08-17T06:11:59.842Z,110
2016-08-17T06:12:59.910Z,110
2016-08-17T06:13:59.754Z,110
2016-08-17T06:14:59.813Z,110
2016-08-17T06:15:59.787Z,110
2016-08-17T06:16:59.843Z,110
2016-08-17T06:17:59.902Z,110
2016-08-17T06:18:59.760Z,115
2016-08-17T06:19:59.767Z,115
2016-08-17T06:20:59.760Z,110
2016-08-17T06:21:59.767Z,110
2016-08-17T06:22:59.773Z,110
2016-08-17T06:23:59.834Z,110
2016-08-17T06:24:59.799Z,110
2016-08-17T06:25:59.836Z,110
2016-08-17T06:27:00.417Z,110
2016-08-17T06:27:59.746Z,115
2016-08-17T06:28:59.797Z,115
2016-08-17T06:29:59.798Z,115
2016-08-17T06:30:59.825Z,115
2016-08-17T06:31:59.769Z,115
2016-08-17T06:33:00.380Z,115
2016-08-17T06:33:59.912Z,115
2016-08-17T06:34:59.831Z,115
2016-08-17T06:35:59.861Z,115
2016-08-17T06:36:59.864Z,115
2016-08-17T06:37:59.799Z,115
2016-08-17T06:38:59.922Z,115
2016-08-17T06:39:59.878Z,115
2016-08-17T06:40:59.813Z,115
2016-08-17T06:42:01.031Z,120
2016-08-17T06:43:00.111Z,120
2016-08-17T06:43:59.815Z,120
2016-08-17T06:44:59.875Z,120
2016-08-17T06:45:59.844Z,120
2016-08-17T06:46:59.907Z,120
2016-08-17T06:47:59.819Z,120
2016-08-17T06:48:59.880Z,120
2016-08-17T06:49:59.847Z,120
2016-08-17T06:50:59.893Z,120
2016-08-17T06:51:59.904Z,120
2016-08-17T06:53:00.062Z,120
2016-08-17T06:53:59.853Z,120
2016-08-17T06:54:59.952Z,120
2016-08-17T06:55:59.810Z,120
2016-08-17T06:56:59.832Z,125
2016-08-17T06:57:59.839Z,125
2016-08-17T06:58:59.812Z,125
2016-08-17T06:59:59.936Z,125
2016-08-17T07:00:59.775Z,125
2016-08-17T07:01:59.893Z,125
2016-08-17T07:02:59.863Z,125
2016-08-17T07:03:59.817Z,125
2016-08-17T07:04:59.801Z,130
2016-08-17T07:05:59.893Z,130
2016-08-17T07:06:59.811Z,130
2016-08-17T07:07:59.892Z,130
2016-08-17T07:08:59.921Z,130
2016-08-17T07:09:59.846Z,130
2016-08-17T07:10:59.919Z,130
2016-08-17T07:11:59.860Z,135
2016-08-17T07:12:59.881Z,135
2016-08-17T07:13:59.880Z,135
2016-08-17T07:14:59.835Z,135
2016-08-17T07:15:59.826Z,135
2016-08-17T07:16:59.879Z,135
2016-08-17T07:17:59.923Z,135
2016-08-17T07:18:59.881Z,135
2016-08-17T07:19:59.800Z,135
2016-08-17T07:20:59.807Z,135
2016-08-17T07:22:00.400Z,135
2016-08-17T07:22:59.924Z,140
2016-08-17T07:23:59.919Z,140
2016-08-17T07:24:59.898Z,140
2016-08-17T07:25:59.914Z,140
2016-08-17T07:26:59.952Z,140
2016-08-17T07:27:59.948Z,140
2016-08-17T07:28:59.891Z,140
2016-08-17T07:29:59.847Z,140
2016-08-17T07:30:59.837Z,145
2016-08-17T07:31:59.892Z,145
2016-08-17T07:32:59.844Z,145
2016-08-17T07:34:00.087Z,145
2016-08-17T07:34:59.902Z,145
2016-08-17T07:35:59.847Z,145
2016-08-17T07:36:59.926Z,145
2016-08-17T07:37:59.891Z,145
2016-08-17T07:39:00.342Z,145
2016-08-17T07:39:59.847Z,145
2016-08-17T07:40:59.897Z,145
2016-08-17T07:41:59.957Z,145
2016-08-17T07:42:59.847Z,150
2016-08-17T07:43:59.819Z,150
2016-08-17T07:44:59.866Z,150
2016-08-17T07:45:59.931Z,150
2016-08-17T07:46:59.836Z,150
2016-08-17T07:47:59.817Z,150
2016-08-17T07:49:00.047Z,150
2016-08-17T07:49:59.866Z,150
2016-08-17T07:50:59.873Z,150
2016-08-17T07:51:59.866Z,150
2016-08-17T07:52:59.886Z,150
2016-08-17T07:54:00.230Z,150
2016-08-17T07:55:00.030Z,150
2016-08-17T07:55:59.969Z,150
2016-08-17T07:56:59.945Z,150
2016-08-17T07:57:59.966Z,145
2016-08-17T07:58:59.974Z,145
2016-08-17T07:59:59.897Z,145
2016-08-17T08:00:59.853Z,145
2016-08-17T08:01:59.864Z,150
2016-08-17T08:02:59.976Z,150
2016-08-17T08:03:59.956Z,145
2016-08-17T08:04:59.884Z,145
2016-08-17T08:05:59.862Z,145
2016-08-17T08:07:00.062Z,145
2016-08-17T08:07:59.900Z,145
2016-08-17T08:09:00.082Z,150
2016-08-17T08:09:59.940Z,150
2016-08-17T08:10:59.935Z,145
2016-08-17T08:11:59.973Z,140
2016-08-17T08:12:59.904Z,140
2016-08-17T08:13:59.867Z,140
2016-08-17T08:14:59.866Z,140
2016-08-17T08:15:59.984Z,140
2016-08-17T08:16:59.902Z,140
2016-08-17T08:17:59.879Z,140
2016-08-17T08:18:59.882Z,140
2016-08-17T08:19:59.925Z,140
2016-08-17T08:21:00.048Z,140
2016-08-17T08:21:59.941Z,140
2016-08-17T08:22:59.926Z,140
2016-08-17T08:23:59.944Z,140
2016-08-17T08:24:59.938Z,140
2016-08-17T08:25:59.911Z,140
2016-08-17T08:26:59.881Z,140
2016-08-17T08:27:59.995Z,140
2016-08-17T08:28:59.906Z,140
2016-08-17T08:29:59.931Z,140
2016-08-17T08:30:59.888Z,140
2016-08-17T08:31:59.871Z,140
2016-08-17T08:32:59.974Z,140
2016-08-17T08:33:59.938Z,140
2016-08-17T08:35:00.031Z,140
2016-08-17T08:36:00.861Z,135
2016-08-17T08:36:59.930Z,135
2016-08-17T08:38:00.079Z,135
2016-08-17T08:38:59.969Z,135
2016-08-17T08:39:59.955Z,135
2016-08-17T08:40:59.968Z,135
2016-08-17T08:41:59.905Z,135
2016-08-17T08:42:59.981Z,135
2016-08-17T08:43:59.923Z,135
2016-08-17T08:44:59.924Z,135
2016-08-17T08:45:59.980Z,135
2016-08-17T08:47:00.020Z,135
2016-08-17T08:47:59.920Z,135
2016-08-17T08:48:59.911Z,135
2016-08-17T08:49:59.897Z,130
2016-08-17T08:50:59.881Z,130
2016-08-17T08:51:59.903Z,130
2016-08-17T08:52:59.897Z,130
2016-08-17T08:53:59.916Z,130
2016-08-17T08:54:59.960Z,130
2016-08-17T08:55:59.895Z,130
2016-08-17T08:56:59.878Z,130
2016-08-17T08:57:59.920Z,130
2016-08-17T08:58:59.942Z,135
2016-08-17T08:59:59.914Z,130
2016-08-17T09:00:59.995Z,130
2016-08-17T09:01:59.958Z,130
2016-08-17T09:02:59.945Z,130
2016-08-17T09:03:59.914Z,130
2016-08-17T09:04:59.944Z,130
2016-08-17T09:05:59.943Z,130
2016-08-17T09:07:00.001Z,130
2016-08-17T09:07:59.919Z,130
2016-08-17T09:08:59.932Z,130
2016-08-17T09:09:59.928Z,130
2016-08-17T09:10:59.952Z,130
2016-08-17T09:11:59.919Z,130
2016-08-17T09:12:59.952Z,130
2016-08-17T09:13:59.959Z,130
2016-08-17T09:14:59.912Z,130
2016-08-17T09:15:59.935Z,130
2016-08-17T09:16:59.911Z,130
2016-08-17T09:17:59.961Z,130
2016-08-17T09:18:59.954Z,130
2016-08-17T09:19:59.941Z,130
2016-08-17T09:20:59.977Z,130
2016-08-17T09:21:59.920Z,130
2016-08-17T09:22:59.937Z,130
2016-08-17T09:23:59.941Z,130
2016-08-17T09:24:59.948Z,130
2016-08-17T09:25:59.942Z,130
2016-08-17T09:26:59.927Z,130
2016-08-17T09:27:59.956Z,130
2016-08-17T09:28:59.937Z,130
2016-08-17T09:29:59.947Z,130
2016-08-17T09:30:59.959Z,130
2016-08-17T09:31:59.966Z,130
2016-08-17T09:33:00.650Z,130
2016-08-17T09:34:00.037Z,130
2016-08-17T09:35:00.040Z,125
2016-08-17T09:36:00.055Z,125
2016-08-17T09:37:00.017Z,125
2016-08-17T09:38:00.670Z,125
2016-08-17T09:38:59.971Z,125
2016-08-17T09:39:59.942Z,125
2016-08-17T09:41:00.003Z,130
2016-08-17T09:41:59.964Z,130
2016-08-17T09:42:59.974Z,130
2016-08-17T09:43:59.975Z,130
2016-08-17T09:44:59.958Z,130
2016-08-17T09:45:59.960Z,130
2016-08-17T09:47:00.050Z,130
2016-08-17T09:47:59.963Z,130
2016-08-17T09:49:00.008Z,125
2016-08-17T09:49:59.950Z,125
2016-08-17T09:50:59.995Z,125
2016-08-17T09:52:00.003Z,125
2016-08-17T09:52:59.964Z,125
2016-08-17T09:54:00.004Z,125
2016-08-17T09:54:59.965Z,125
2016-08-17T09:55:59.977Z,125
2016-08-17T09:57:00.039Z,125
2016-08-17T09:58:00.088Z,125
2016-08-17T09:59:00.011Z,125
2016-08-17T09:59:59.991Z,125
2016-08-17T10:01:00.061Z,125
2016-08-17T10:01:59.991Z,125
2016-08-17T10:03:00.012Z,125
2016-08-17T10:04:00.005Z,125
2016-08-17T10:04:59.992Z,125
2016-08-17T10:06:00.007Z,125
2016-08-17T10:06:59.959Z,125
2016-08-17T10:07:59.994Z,125
2016-08-17T10:08:59.987Z,125
2016-08-17T10:09:59.993Z,125
2016-08-17T10:10:59.967Z,125
2016-08-17T10:12:00.037Z,125
2016-08-17T10:13:00.014Z,125
2016-08-17T10:14:00.036Z,125
2016-08-17T10:14:59.983Z,125
2016-08-17T10:16:00.027Z,125
2016-08-17T10:17:00.027Z,125
2016-08-17T10:18:00.020Z,125
2016-08-17T10:19:00.007Z,120
2016-08-17T10:20:00.004Z,125
2016-08-17T10:21:00.043Z,125
2016-08-17T10:22:00.038Z,120
2016-08-17T10:23:00.052Z,125
2016-08-17T10:24:00.013Z,120
2016-08-17T10:25:00.056Z,120
2016-08-17T10:26:00.357Z,125
2016-08-17T10:27:00.161Z,125
2016-08-17T10:28:00.136Z,120
2016-08-17T10:29:00.098Z,125
2016-08-17T10:30:00.090Z,120
2016-08-17T10:31:00.727Z,120
2016-08-17T10:32:00.105Z,120
2016-08-17T10:33:00.386Z,120
2016-08-17T10:34:00.397Z,120
2016-08-17T10:35:00.036Z,120
2016-08-17T10:36:00.040Z,120
2016-08-17T10:37:00.111Z,120
2016-08-17T10:38:00.054Z,120
2016-08-17T10:39:00.099Z,120
2016-08-17T10:40:00.081Z,120
2016-08-17T10:41:00.046Z,120
2016-08-17T10:42:00.054Z,130
2016-08-17T10:43:00.150Z,120
2016-08-17T10:44:00.022Z,120
2016-08-17T10:45:00.087Z,120
2016-08-17T10:46:00.110Z,120
2016-08-17T10:47:00.059Z,120
2016-08-17T10:48:00.042Z,120
2016-08-17T10:49:00.054Z,120
2016-08-17T10:50:00.761Z,120
2016-08-17T10:51:00.325Z,120
2016-08-17T10:52:00.089Z,120
2016-08-17T10:53:00.127Z,120
2016-08-17T10:54:00.077Z,120
2016-08-17T10:55:00.168Z,120
2016-08-17T10:56:00.165Z,120
2016-08-17T10:57:00.055Z,120
2016-08-17T10:58:00.159Z,120
2016-08-17T10:59:00.045Z,120
2016-08-17T11:00:00.131Z,120
2016-08-17T11:01:00.070Z,120
2016-08-17T11:02:00.147Z,120
2016-08-17T11:03:00.073Z,120
2016-08-17T11:04:00.112Z,120
2016-08-17T11:05:00.137Z,120
2016-08-17T11:06:00.060Z,120
2016-08-17T11:07:00.089Z,120
2016-08-17T11:08:00.101Z,120
2016-08-17T11:09:00.108Z,120
2016-08-17T11:10:00.093Z,120
2016-08-17T11:11:00.085Z,120
2016-08-17T11:12:01.091Z,120
2016-08-17T11:13:00.083Z,120
2016-08-17T11:14:00.168Z,120
2016-08-17T11:15:00.143Z,120
2016-08-17T11:16:00.128Z,120
2016-08-17T11:17:00.090Z,120
2016-08-17T11:18:00.083Z,120
2016-08-17T11:19:00.025Z,120
2016-08-17T11:20:00.041Z,120
2016-08-17T11:21:00.145Z,120
2016-08-17T11:22:00.144Z,120
2016-08-17T11:23:00.121Z,120
2016-08-17T11:24:00.145Z,120
2016-08-17T11:25:00.130Z,120
2016-08-17T11:26:00.129Z,120
2016-08-17T11:27:00.125Z,120
2016-08-17T11:28:00.158Z,120
2016-08-17T11:29:00.182Z,120
2016-08-17T11:30:00.125Z,115
2016-08-17T11:31:00.183Z,120
2016-08-17T11:32:00.146Z,120
2016-08-17T11:33:00.109Z,115
2016-08-17T11:34:00.102Z,115
2016-08-17T11:35:00.116Z,115
2016-08-17T11:36:00.137Z,115
2016-08-17T11:37:00.101Z,115
2016-08-17T11:38:00.149Z,115
2016-08-17T11:39:00.145Z,115
2016-08-17T11:40:00.139Z,115
2016-08-17T11:41:00.081Z,115
2016-08-17T11:42:00.108Z,115
2016-08-17T11:43:00.138Z,115
2016-08-17T11:44:00.163Z,115
2016-08-17T11:45:00.856Z,115
2016-08-17T11:46:00.148Z,115
2016-08-17T11:47:00.194Z,115
2016-08-17T11:48:00.144Z,115
2016-08-17T11:49:00.120Z,115
2016-08-17T11:50:00.174Z,115
2016-08-17T11:51:00.103Z,115
2016-08-17T11:52:00.137Z,115
2016-08-17T11:53:00.075Z,115
2016-08-17T11:54:00.109Z,120
2016-08-17T11:55:00.102Z,120
2016-08-17T11:56:00.118Z,120
2016-08-17T11:57:00.152Z,120
2016-08-17T11:58:00.151Z,120
2016-08-17T11:59:00.131Z,120
2016-08-17T12:00:00.165Z,120
2016-08-17T12:01:00.156Z,120
2016-08-17T12:02:00.120Z,120
2016-08-17T12:03:00.112Z,120
2016-08-17T12:04:00.123Z,120
2016-08-17T12:05:00.137Z,120
2016-08-17T12:06:00.193Z,120
2016-08-17T12:07:00.702Z,120
2016-08-17T12:08:00.162Z,120
2016-08-17T12:09:00.339Z,120
2016-08-17T12:10:01.010Z,120
2016-08-17T12:11:00.165Z,120
2016-08-17T12:12:00.164Z,120
2016-08-17T12:13:00.165Z,120
2016-08-17T12:14:00.184Z,120
2016-08-17T12:15:00.176Z,125
2016-08-17T12:16:00.244Z,130
2016-08-17T12:17:00.192Z,125
2016-08-17T12:18:00.151Z,125
2016-08-17T12:19:00.143Z,125
2016-08-17T12:20:00.172Z,125
2016-08-17T12:21:00.231Z,125
2016-08-17T12:22:00.214Z,130
2016-08-17T12:23:00.229Z,130
2016-08-17T12:24:00.164Z,130
2016-08-17T12:25:00.228Z,125
2016-08-17T12:26:00.226Z,125
2016-08-17T12:27:00.170Z,130
2016-08-17T12:28:00.228Z,130
2016-08-17T12:29:00.196Z,130
2016-08-17T12:30:00.242Z,135
2016-08-17T12:31:00.209Z,135
2016-08-17T12:32:00.181Z,135
2016-08-17T12:33:00.182Z,140
2016-08-17T12:34:00.149Z,140
2016-08-17T12:35:00.194Z,140
2016-08-17T12:36:00.165Z,140
2016-08-17T12:37:00.180Z,140
2016-08-17T12:38:00.150Z,145
2016-08-17T12:39:00.156Z,145
2016-08-17T12:40:00.120Z,145
2016-08-17T12:41:00.170Z,150
2016-08-17T12:42:00.150Z,150
2016-08-17T12:43:00.154Z,155
2016-08-17T12:44:00.189Z,155
2016-08-17T12:45:00.196Z,160
2016-08-17T12:46:00.240Z,160
2016-08-17T12:47:00.209Z,160
2016-08-17T12:48:00.168Z,165
2016-08-17T12:49:00.215Z,170
2016-08-17T12:50:00.260Z,175
2016-08-17T12:51:00.222Z,180
2016-08-17T12:52:00.184Z,185
2016-08-17T12:53:00.196Z,195
2016-08-17T12:54:00.232Z,200
2016-08-17T12:55:00.200Z,205
2016-08-17T12:56:00.172Z,210
2016-08-17T12:57:00.179Z,215
2016-08-17T12:58:00.166Z,225
2016-08-17T12:59:00.151Z,230
2016-08-17T13:00:00.207Z,240
2016-08-17T13:01:00.211Z,245
2016-08-17T13:02:00.181Z,250
2016-08-17T13:03:00.210Z,255
2016-08-17T13:04:00.182Z,265
2016-08-17T13:05:00.196Z,270
2016-08-17T13:06:00.224Z,275
2016-08-17T13:07:00.479Z,285
2016-08-17T13:08:00.860Z,290
2016-08-17T13:09:00.273Z,290
2016-08-17T13:10:00.219Z,290
2016-08-17T13:11:00.194Z,285
2016-08-17T13:12:00.747Z,285
2016-08-17T13:13:00.228Z,280
2016-08-17T13:14:00.181Z,275
2016-08-17T13:15:00.287Z,270
2016-08-17T13:16:00.842Z,265
2016-08-17T13:17:00.228Z,270
2016-08-17T13:18:00.249Z,260
2016-08-17T13:19:00.285Z,260
2016-08-17T13:20:00.214Z,255
2016-08-17T13:21:00.737Z,255
2016-08-17T13:22:00.242Z,250
2016-08-17T13:23:00.255Z,245
2016-08-17T13:24:00.229Z,240
2016-08-17T13:25:00.231Z,235
2016-08-17T13:26:00.290Z,235
2016-08-17T13:27:00.203Z,235
2016-08-17T13:28:00.199Z,235
2016-08-17T13:29:00.213Z,235
2016-08-17T13:30:00.303Z,235
2016-08-17T13:31:00.250Z,230
2016-08-17T13:32:00.279Z,230
2016-08-17T13:33:00.212Z,230
2016-08-17T13:34:00.248Z,225
2016-08-17T13:35:00.309Z,225
2016-08-17T13:36:00.260Z,220
2016-08-17T13:37:00.288Z,220
2016-08-17T13:38:00.275Z,220
2016-08-17T13:39:00.328Z,215
2016-08-17T13:40:00.276Z,215
2016-08-17T13:41:00.859Z,210
2016-08-17T13:42:00.861Z,210
2016-08-17T13:43:00.310Z,210
2016-08-17T13:44:00.246Z,210
2016-08-17T13:45:00.249Z,205
2016-08-17T13:46:00.225Z,200
2016-08-17T13:47:00.291Z,200
2016-08-17T13:48:00.279Z,200
2016-08-17T13:49:00.247Z,195
2016-08-17T13:50:00.264Z,195
2016-08-17T13:51:00.229Z,195
2016-08-17T13:52:00.249Z,200
2016-08-17T13:53:00.275Z,200
2016-08-17T13:54:00.292Z,200
2016-08-17T13:55:00.196Z,200
2016-08-17T13:56:00.321Z,200
2016-08-17T13:57:00.250Z,200
2016-08-17T13:58:00.247Z,200
2016-08-17T13:59:00.258Z,205
2016-08-17T14:00:00.359Z,205
2016-08-17T14:01:00.259Z,205
2016-08-17T14:02:00.278Z,205
2016-08-17T14:03:00.278Z,210
2016-08-17T14:04:00.259Z,210
2016-08-17T14:05:00.258Z,215
2016-08-17T14:06:00.349Z,215
2016-08-17T14:07:00.318Z,220
2016-08-17T14:08:00.231Z,225